sensor_id;sensor_type;location;lat;lon;timestamp;P1;durP1;ratioP1;P2;durP2;ratioP2
58896;SDS011;44677;52.378;10.400;2023-05-20T00:00:05;3.70;;;2.00;;
58896;SDS011;44677;52.378;10.400;2023-05-20T00:02:31;2.20;;;2.00;;
58896;SDS011;44677;52.378;10.400;2023-05-20T00:04:57;2.20;;;1.80;;
58896;SDS011;44677;52.378;10.400;2023-05-20T00:07:22;4.10;;;2.00;;
58896;SDS011;44677;52.378;10.400;2023-05-20T00:09:48;3.20;;;2.10;;
58896;SDS011;44677;52.378;10.400;2023-05-20T00:12:13;4.00;;;2.00;;
58896;SDS011;44677;52.378;10.400;2023-05-20T00:14:39;2.40;;;2.00;;
58896;SDS011;44677;52.378;10.400;2023-05-20T00:17:04;2.70;;;1.80;;
58896;SDS011;44677;52.378;10.400;2023-05-20T00:19:30;2.10;;;1.90;;
58896;SDS011;44677;52.378;10.400;2023-05-20T00:21:55;1.60;;;1.50;;
58896;SDS011;44677;52.378;10.400;2023-05-20T00:24:22;3.10;;;1.90;;
58896;SDS011;44677;52.378;10.400;2023-05-20T00:26:48;3.80;;;2.80;;
58896;SDS011;44677;52.378;10.400;2023-05-20T00:29:13;3.00;;;2.10;;
58896;SDS011;44677;52.378;10.400;2023-05-20T00:31:39;3.00;;;1.80;;
58896;SDS011;44677;52.378;10.400;2023-05-20T00:34:04;3.80;;;1.90;;
58896;SDS011;44677;52.378;10.400;2023-05-20T00:36:30;3.20;;;1.90;;
58896;SDS011;44677;52.378;10.400;2023-05-20T00:38:55;2.30;;;1.80;;
58896;SDS011;44677;52.378;10.400;2023-05-20T00:41:20;3.70;;;1.90;;
58896;SDS011;44677;52.378;10.400;2023-05-20T00:43:46;2.50;;;1.80;;
58896;SDS011;44677;52.378;10.400;2023-05-20T00:46:12;2.50;;;2.20;;
58896;SDS011;44677;52.378;10.400;2023-05-20T00:48:41;1.90;;;1.80;;
58896;SDS011;44677;52.378;10.400;2023-05-20T00:51:07;3.40;;;2.00;;
58896;SDS011;44677;52.378;10.400;2023-05-20T00:53:34;2.20;;;2.00;;
58896;SDS011;44677;52.378;10.400;2023-05-20T00:56:00;2.40;;;2.20;;
58896;SDS011;44677;52.378;10.400;2023-05-20T00:58:26;2.40;;;2.20;;
58896;SDS011;44677;52.378;10.400;2023-05-20T01:00:52;2.50;;;1.90;;
58896;SDS011;44677;52.378;10.400;2023-05-20T01:03:18;2.10;;;1.90;;
58896;SDS011;44677;52.378;10.400;2023-05-20T01:05:43;2.30;;;1.70;;
58896;SDS011;44677;52.378;10.400;2023-05-20T01:08:09;5.20;;;1.80;;
58896;SDS011;44677;52.378;10.400;2023-05-20T01:10:34;2.30;;;1.60;;
58896;SDS011;44677;52.378;10.400;2023-05-20T01:13:04;3.20;;;1.90;;
58896;SDS011;44677;52.378;10.400;2023-05-20T01:15:33;2.00;;;1.80;;
58896;SDS011;44677;52.378;10.400;2023-05-20T01:18:00;2.90;;;2.10;;
58896;SDS011;44677;52.378;10.400;2023-05-20T01:20:27;2.50;;;2.10;;
58896;SDS011;44677;52.378;10.400;2023-05-20T01:22:54;2.90;;;2.20;;
58896;SDS011;44677;52.378;10.400;2023-05-20T01:25:21;2.50;;;1.90;;
58896;SDS011;44677;52.378;10.400;2023-05-20T01:27:47;1.90;;;1.80;;
58896;SDS011;44677;52.378;10.400;2023-05-20T01:30:13;2.40;;;2.10;;
58896;SDS011;44677;52.378;10.400;2023-05-20T01:32:42;2.60;;;2.00;;
58896;SDS011;44677;52.378;10.400;2023-05-20T01:35:17;2.60;;;2.20;;
58896;SDS011;44677;52.378;10.400;2023-05-20T01:37:42;2.20;;;2.10;;
58896;SDS011;44677;52.378;10.400;2023-05-20T01:40:08;2.50;;;2.20;;
58896;SDS011;44677;52.378;10.400;2023-05-20T01:42:35;2.40;;;2.20;;
58896;SDS011;44677;52.378;10.400;2023-05-20T01:45:02;3.60;;;2.50;;
58896;SDS011;44677;52.378;10.400;2023-05-20T01:47:27;2.00;;;1.90;;
58896;SDS011;44677;52.378;10.400;2023-05-20T01:49:53;2.60;;;2.30;;
58896;SDS011;44677;52.378;10.400;2023-05-20T01:52:19;3.00;;;2.30;;
58896;SDS011;44677;52.378;10.400;2023-05-20T01:57:22;2.10;;;1.90;;
58896;SDS011;44677;52.378;10.400;2023-05-20T01:59:48;4.10;;;2.20;;
58896;SDS011;44677;52.378;10.400;2023-05-20T02:02:14;4.70;;;2.50;;
58896;SDS011;44677;52.378;10.400;2023-05-20T02:04:44;2.20;;;1.90;;
58896;SDS011;44677;52.378;10.400;2023-05-20T02:07:13;2.30;;;2.10;;
58896;SDS011;44677;52.378;10.400;2023-05-20T02:09:40;2.30;;;2.00;;
58896;SDS011;44677;52.378;10.400;2023-05-20T02:12:06;2.40;;;1.80;;
58896;SDS011;44677;52.378;10.400;2023-05-20T02:14:33;3.80;;;1.80;;
58896;SDS011;44677;52.378;10.400;2023-05-20T02:16:58;2.80;;;2.10;;
58896;SDS011;44677;52.378;10.400;2023-05-20T02:19:25;3.80;;;2.00;;
58896;SDS011;44677;52.378;10.400;2023-05-20T02:21:51;3.60;;;2.20;;
58896;SDS011;44677;52.378;10.400;2023-05-20T02:24:16;2.40;;;2.20;;
58896;SDS011;44677;52.378;10.400;2023-05-20T02:26:42;2.00;;;1.80;;
58896;SDS011;44677;52.378;10.400;2023-05-20T02:29:09;3.90;;;1.90;;
58896;SDS011;44677;52.378;10.400;2023-05-20T02:31:35;2.90;;;2.10;;
58896;SDS011;44677;52.378;10.400;2023-05-20T02:34:01;2.50;;;1.80;;
58896;SDS011;44677;52.378;10.400;2023-05-20T02:36:27;2.40;;;1.70;;
58896;SDS011;44677;52.378;10.400;2023-05-20T02:38:52;2.30;;;2.00;;
58896;SDS011;44677;52.378;10.400;2023-05-20T02:41:21;1.90;;;1.80;;
58896;SDS011;44677;52.378;10.400;2023-05-20T02:43:47;2.10;;;1.90;;
58896;SDS011;44677;52.378;10.400;2023-05-20T02:46:12;1.90;;;1.80;;
58896;SDS011;44677;52.378;10.400;2023-05-20T02:48:39;2.70;;;1.80;;
58896;SDS011;44677;52.378;10.400;2023-05-20T02:51:05;3.20;;;1.90;;
58896;SDS011;44677;52.378;10.400;2023-05-20T02:53:30;1.90;;;1.70;;
58896;SDS011;44677;52.378;10.400;2023-05-20T02:55:56;3.80;;;2.00;;
58896;SDS011;44677;52.378;10.400;2023-05-20T02:58:22;2.10;;;2.00;;
58896;SDS011;44677;52.378;10.400;2023-05-20T03:00:51;3.50;;;2.10;;
58896;SDS011;44677;52.378;10.400;2023-05-20T03:03:16;2.20;;;2.10;;
58896;SDS011;44677;52.378;10.400;2023-05-20T03:05:42;2.20;;;1.70;;
58896;SDS011;44677;52.378;10.400;2023-05-20T03:08:10;2.60;;;2.10;;
58896;SDS011;44677;52.378;10.400;2023-05-20T03:10:39;2.40;;;2.00;;
58896;SDS011;44677;52.378;10.400;2023-05-20T03:13:05;2.50;;;2.10;;
58896;SDS011;44677;52.378;10.400;2023-05-20T03:15:36;4.20;;;1.90;;
58896;SDS011;44677;52.378;10.400;2023-05-20T03:18:02;2.40;;;2.00;;
58896;SDS011;44677;52.378;10.400;2023-05-20T03:20:29;3.10;;;2.10;;
58896;SDS011;44677;52.378;10.400;2023-05-20T03:22:54;2.50;;;2.20;;
58896;SDS011;44677;52.378;10.400;2023-05-20T03:25:21;2.60;;;2.40;;
58896;SDS011;44677;52.378;10.400;2023-05-20T03:27:46;3.00;;;2.10;;
58896;SDS011;44677;52.378;10.400;2023-05-20T03:30:12;4.80;;;1.90;;
58896;SDS011;44677;52.378;10.400;2023-05-20T03:32:38;4.70;;;2.10;;
58896;SDS011;44677;52.378;10.400;2023-05-20T03:35:04;2.70;;;2.20;;
58896;SDS011;44677;52.378;10.400;2023-05-20T03:37:30;2.10;;;1.90;;
58896;SDS011;44677;52.378;10.400;2023-05-20T03:39:55;2.10;;;2.00;;
58896;SDS011;44677;52.378;10.400;2023-05-20T03:42:21;2.30;;;1.70;;
58896;SDS011;44677;52.378;10.400;2023-05-20T03:44:46;2.70;;;2.50;;
58896;SDS011;44677;52.378;10.400;2023-05-20T03:47:13;2.20;;;2.00;;
58896;SDS011;44677;52.378;10.400;2023-05-20T03:49:38;2.00;;;1.80;;
58896;SDS011;44677;52.378;10.400;2023-05-20T03:52:05;2.90;;;2.00;;
58896;SDS011;44677;52.378;10.400;2023-05-20T03:54:32;3.20;;;2.20;;
58896;SDS011;44677;52.378;10.400;2023-05-20T03:56:57;2.80;;;2.00;;
58896;SDS011;44677;52.378;10.400;2023-05-20T03:59:25;3.60;;;2.30;;
58896;SDS011;44677;52.378;10.400;2023-05-20T04:01:51;3.10;;;2.30;;
58896;SDS011;44677;52.378;10.400;2023-05-20T04:04:17;4.80;;;2.30;;
58896;SDS011;44677;52.378;10.400;2023-05-20T04:06:42;2.50;;;2.20;;
58896;SDS011;44677;52.378;10.400;2023-05-20T04:09:08;3.60;;;2.30;;
58896;SDS011;44677;52.378;10.400;2023-05-20T04:11:33;3.80;;;2.20;;
58896;SDS011;44677;52.378;10.400;2023-05-20T04:13:59;3.50;;;2.20;;
58896;SDS011;44677;52.378;10.400;2023-05-20T04:16:24;3.10;;;2.40;;
58896;SDS011;44677;52.378;10.400;2023-05-20T04:18:50;2.80;;;2.40;;
58896;SDS011;44677;52.378;10.400;2023-05-20T04:21:17;2.10;;;2.00;;
58896;SDS011;44677;52.378;10.400;2023-05-20T04:23:44;2.20;;;2.00;;
58896;SDS011;44677;52.378;10.400;2023-05-20T04:26:09;2.90;;;2.30;;
58896;SDS011;44677;52.378;10.400;2023-05-20T04:28:35;3.20;;;2.00;;
58896;SDS011;44677;52.378;10.400;2023-05-20T04:31:02;2.90;;;2.30;;
58896;SDS011;44677;52.378;10.400;2023-05-20T04:33:32;3.60;;;2.20;;
58896;SDS011;44677;52.378;10.400;2023-05-20T04:36:02;2.50;;;2.30;;
58896;SDS011;44677;52.378;10.400;2023-05-20T04:38:29;3.00;;;2.40;;
58896;SDS011;44677;52.378;10.400;2023-05-20T04:40:57;2.20;;;2.00;;
58896;SDS011;44677;52.378;10.400;2023-05-20T04:43:27;3.00;;;2.60;;
58896;SDS011;44677;52.378;10.400;2023-05-20T04:45:54;2.50;;;2.20;;
58896;SDS011;44677;52.378;10.400;2023-05-20T04:48:20;3.40;;;2.60;;
58896;SDS011;44677;52.378;10.400;2023-05-20T04:50:46;3.50;;;2.60;;
58896;SDS011;44677;52.378;10.400;2023-05-20T04:53:14;3.40;;;2.20;;
58896;SDS011;44677;52.378;10.400;2023-05-20T04:55:43;6.90;;;5.90;;
58896;SDS011;44677;52.378;10.400;2023-05-20T04:58:10;5.50;;;4.90;;
58896;SDS011;44677;52.378;10.400;2023-05-20T05:00:45;4.50;;;3.60;;
58896;SDS011;44677;52.378;10.400;2023-05-20T05:03:11;4.90;;;3.80;;
58896;SDS011;44677;52.378;10.400;2023-05-20T05:05:39;2.70;;;2.50;;
58896;SDS011;44677;52.378;10.400;2023-05-20T05:08:06;4.50;;;3.20;;
58896;SDS011;44677;52.378;10.400;2023-05-20T05:10:34;6.10;;;3.80;;
58896;SDS011;44677;52.378;10.400;2023-05-20T05:12:59;4.30;;;3.90;;
58896;SDS011;44677;52.378;10.400;2023-05-20T05:15:26;4.00;;;3.70;;
58896;SDS011;44677;52.378;10.400;2023-05-20T05:17:51;7.00;;;3.50;;
58896;SDS011;44677;52.378;10.400;2023-05-20T05:20:17;4.20;;;3.10;;
58896;SDS011;44677;52.378;10.400;2023-05-20T05:22:44;4.10;;;3.30;;
58896;SDS011;44677;52.378;10.400;2023-05-20T05:25:09;3.20;;;2.80;;
58896;SDS011;44677;52.378;10.400;2023-05-20T05:27:35;3.00;;;2.70;;
58896;SDS011;44677;52.378;10.400;2023-05-20T05:30:02;3.70;;;3.20;;
58896;SDS011;44677;52.378;10.400;2023-05-20T05:32:28;4.50;;;3.60;;
58896;SDS011;44677;52.378;10.400;2023-05-20T05:34:53;3.50;;;3.20;;
58896;SDS011;44677;52.378;10.400;2023-05-20T05:37:19;4.50;;;3.00;;
58896;SDS011;44677;52.378;10.400;2023-05-20T05:39:45;5.30;;;3.50;;
58896;SDS011;44677;52.378;10.400;2023-05-20T05:42:11;4.70;;;3.30;;
58896;SDS011;44677;52.378;10.400;2023-05-20T05:44:36;3.50;;;3.20;;
58896;SDS011;44677;52.378;10.400;2023-05-20T05:47:03;3.70;;;3.40;;
58896;SDS011;44677;52.378;10.400;2023-05-20T05:49:30;3.60;;;3.30;;
58896;SDS011;44677;52.378;10.400;2023-05-20T05:51:57;8.40;;;5.00;;
58896;SDS011;44677;52.378;10.400;2023-05-20T05:54:22;4.30;;;3.30;;
58896;SDS011;44677;52.378;10.400;2023-05-20T05:56:51;5.30;;;3.60;;
58896;SDS011;44677;52.378;10.400;2023-05-20T05:59:17;4.10;;;3.10;;
58896;SDS011;44677;52.378;10.400;2023-05-20T06:01:43;5.90;;;3.40;;
58896;SDS011;44677;52.378;10.400;2023-05-20T06:04:08;4.40;;;3.40;;
58896;SDS011;44677;52.378;10.400;2023-05-20T06:06:34;4.40;;;3.50;;
58896;SDS011;44677;52.378;10.400;2023-05-20T06:09:00;6.30;;;3.30;;
58896;SDS011;44677;52.378;10.400;2023-05-20T06:11:25;4.00;;;3.30;;
58896;SDS011;44677;52.378;10.400;2023-05-20T06:13:50;5.10;;;3.70;;
58896;SDS011;44677;52.378;10.400;2023-05-20T06:16:16;4.40;;;4.00;;
58896;SDS011;44677;52.378;10.400;2023-05-20T06:18:42;7.70;;;4.20;;
58896;SDS011;44677;52.378;10.400;2023-05-20T06:21:11;7.10;;;4.40;;
58896;SDS011;44677;52.378;10.400;2023-05-20T06:23:36;6.10;;;4.50;;
58896;SDS011;44677;52.378;10.400;2023-05-20T06:26:04;5.50;;;4.40;;
58896;SDS011;44677;52.378;10.400;2023-05-20T06:28:30;5.10;;;4.40;;
58896;SDS011;44677;52.378;10.400;2023-05-20T06:30:56;6.30;;;4.40;;
58896;SDS011;44677;52.378;10.400;2023-05-20T06:33:22;12.10;;;4.90;;
58896;SDS011;44677;52.378;10.400;2023-05-20T06:35:51;5.20;;;4.70;;
58896;SDS011;44677;52.378;10.400;2023-05-20T06:38:19;8.70;;;5.30;;
58896;SDS011;44677;52.378;10.400;2023-05-20T06:40:45;5.70;;;4.60;;
58896;SDS011;44677;52.378;10.400;2023-05-20T06:43:11;7.20;;;5.60;;
58896;SDS011;44677;52.378;10.400;2023-05-20T06:45:55;7.10;;;4.90;;
58896;SDS011;44677;52.378;10.400;2023-05-20T06:48:26;10.20;;;5.50;;
58896;SDS011;44677;52.378;10.400;2023-05-20T06:50:51;5.90;;;4.40;;
58896;SDS011;44677;52.378;10.400;2023-05-20T06:53:17;7.50;;;4.90;;
58896;SDS011;44677;52.378;10.400;2023-05-20T06:55:42;8.20;;;5.30;;
58896;SDS011;44677;52.378;10.400;2023-05-20T06:58:09;5.40;;;4.90;;
58896;SDS011;44677;52.378;10.400;2023-05-20T07:00:34;6.20;;;4.70;;
58896;SDS011;44677;52.378;10.400;2023-05-20T07:03:00;7.90;;;5.00;;
58896;SDS011;44677;52.378;10.400;2023-05-20T07:05:26;5.50;;;4.90;;
58896;SDS011;44677;52.378;10.400;2023-05-20T07:07:53;7.20;;;6.00;;
58896;SDS011;44677;52.378;10.400;2023-05-20T07:10:19;7.90;;;5.20;;
58896;SDS011;44677;52.378;10.400;2023-05-20T07:12:44;6.10;;;4.90;;
58896;SDS011;44677;52.378;10.400;2023-05-20T07:15:10;8.30;;;5.50;;
58896;SDS011;44677;52.378;10.400;2023-05-20T07:17:35;8.50;;;4.90;;
58896;SDS011;44677;52.378;10.400;2023-05-20T07:20:02;8.30;;;4.80;;
58896;SDS011;44677;52.378;10.400;2023-05-20T07:25:01;11.80;;;4.90;;
58896;SDS011;44677;52.378;10.400;2023-05-20T07:27:27;5.90;;;4.40;;
58896;SDS011;44677;52.378;10.400;2023-05-20T07:29:53;5.00;;;4.50;;
58896;SDS011;44677;52.378;10.400;2023-05-20T07:32:18;5.80;;;4.60;;
58896;SDS011;44677;52.378;10.400;2023-05-20T07:34:44;6.40;;;5.30;;
58896;SDS011;44677;52.378;10.400;2023-05-20T07:37:09;7.40;;;5.10;;
58896;SDS011;44677;52.378;10.400;2023-05-20T07:39:36;7.20;;;4.90;;
58896;SDS011;44677;52.378;10.400;2023-05-20T07:42:04;6.10;;;4.20;;
58896;SDS011;44677;52.378;10.400;2023-05-20T07:44:29;4.60;;;3.80;;
58896;SDS011;44677;52.378;10.400;2023-05-20T07:46:56;6.10;;;4.20;;
58896;SDS011;44677;52.378;10.400;2023-05-20T07:49:21;4.30;;;3.90;;
58896;SDS011;44677;52.378;10.400;2023-05-20T07:51:47;5.70;;;4.00;;
58896;SDS011;44677;52.378;10.400;2023-05-20T07:54:14;6.10;;;3.80;;
58896;SDS011;44677;52.378;10.400;2023-05-20T07:56:39;4.20;;;3.80;;
58896;SDS011;44677;52.378;10.400;2023-05-20T07:59:06;3.90;;;3.50;;
58896;SDS011;44677;52.378;10.400;2023-05-20T08:01:37;5.10;;;3.50;;
58896;SDS011;44677;52.378;10.400;2023-05-20T08:04:05;4.50;;;3.50;;
58896;SDS011;44677;52.378;10.400;2023-05-20T08:06:30;3.60;;;3.30;;
58896;SDS011;44677;52.378;10.400;2023-05-20T08:08:56;4.00;;;3.60;;
58896;SDS011;44677;52.378;10.400;2023-05-20T08:11:27;4.20;;;3.30;;
58896;SDS011;44677;52.378;10.400;2023-05-20T08:13:52;5.30;;;3.50;;
58896;SDS011;44677;52.378;10.400;2023-05-20T08:18:45;4.10;;;3.70;;
58896;SDS011;44677;52.378;10.400;2023-05-20T08:21:11;5.60;;;3.60;;
58896;SDS011;44677;52.378;10.400;2023-05-20T08:23:36;5.10;;;3.90;;
58896;SDS011;44677;52.378;10.400;2023-05-20T08:26:02;8.60;;;3.30;;
58896;SDS011;44677;52.378;10.400;2023-05-20T08:28:29;3.70;;;3.30;;
58896;SDS011;44677;52.378;10.400;2023-05-20T08:30:56;4.50;;;3.40;;
58896;SDS011;44677;52.378;10.400;2023-05-20T08:33:25;3.90;;;2.90;;
58896;SDS011;44677;52.378;10.400;2023-05-20T08:35:50;4.00;;;3.00;;
58896;SDS011;44677;52.378;10.400;2023-05-20T08:38:16;3.60;;;3.10;;
58896;SDS011;44677;52.378;10.400;2023-05-20T08:40:41;4.60;;;3.40;;
58896;SDS011;44677;52.378;10.400;2023-05-20T08:43:07;5.20;;;3.10;;
58896;SDS011;44677;52.378;10.400;2023-05-20T08:45:33;4.00;;;3.00;;
58896;SDS011;44677;52.378;10.400;2023-05-20T08:48:04;3.30;;;2.90;;
58896;SDS011;44677;52.378;10.400;2023-05-20T08:50:30;3.70;;;3.10;;
58896;SDS011;44677;52.378;10.400;2023-05-20T08:52:55;6.70;;;3.30;;
58896;SDS011;44677;52.378;10.400;2023-05-20T08:55:27;3.40;;;3.10;;
58896;SDS011;44677;52.378;10.400;2023-05-20T09:00:23;4.50;;;3.30;;
58896;SDS011;44677;52.378;10.400;2023-05-20T09:02:53;6.00;;;3.50;;
58896;SDS011;44677;52.378;10.400;2023-05-20T09:05:19;4.80;;;3.50;;
58896;SDS011;44677;52.378;10.400;2023-05-20T09:07:45;3.80;;;2.90;;
58896;SDS011;44677;52.378;10.400;2023-05-20T09:10:11;4.90;;;3.70;;
58896;SDS011;44677;52.378;10.400;2023-05-20T09:12:36;4.30;;;3.30;;
58896;SDS011;44677;52.378;10.400;2023-05-20T09:15:05;4.80;;;3.00;;
58896;SDS011;44677;52.378;10.400;2023-05-20T09:17:35;3.70;;;3.40;;
58896;SDS011;44677;52.378;10.400;2023-05-20T09:20:04;3.70;;;3.30;;
58896;SDS011;44677;52.378;10.400;2023-05-20T09:22:34;5.20;;;3.50;;
58896;SDS011;44677;52.378;10.400;2023-05-20T09:24:59;4.80;;;3.50;;
58896;SDS011;44677;52.378;10.400;2023-05-20T09:27:25;3.30;;;2.70;;
58896;SDS011;44677;52.378;10.400;2023-05-20T09:29:50;4.50;;;3.30;;
58896;SDS011;44677;52.378;10.400;2023-05-20T09:32:16;4.90;;;3.60;;
58896;SDS011;44677;52.378;10.400;2023-05-20T09:34:44;4.20;;;3.80;;
58896;SDS011;44677;52.378;10.400;2023-05-20T09:37:10;5.70;;;3.70;;
58896;SDS011;44677;52.378;10.400;2023-05-20T09:39:54;4.00;;;3.30;;
58896;SDS011;44677;52.378;10.400;2023-05-20T09:42:27;5.70;;;3.70;;
58896;SDS011;44677;52.378;10.400;2023-05-20T09:44:56;3.90;;;3.50;;
58896;SDS011;44677;52.378;10.400;2023-05-20T09:47:22;4.80;;;3.80;;
58896;SDS011;44677;52.378;10.400;2023-05-20T09:49:49;6.10;;;3.90;;
58896;SDS011;44677;52.378;10.400;2023-05-20T09:52:16;5.80;;;3.90;;
58896;SDS011;44677;52.378;10.400;2023-05-20T09:54:43;5.40;;;3.40;;
58896;SDS011;44677;52.378;10.400;2023-05-20T09:57:09;7.20;;;3.70;;
58896;SDS011;44677;52.378;10.400;2023-05-20T09:59:35;4.30;;;3.90;;
58896;SDS011;44677;52.378;10.400;2023-05-20T10:02:02;5.10;;;3.60;;
58896;SDS011;44677;52.378;10.400;2023-05-20T10:04:30;4.60;;;3.70;;
58896;SDS011;44677;52.378;10.400;2023-05-20T10:20:46;6.50;;;4.60;;
58896;SDS011;44677;52.378;10.400;2023-05-20T10:23:21;5.00;;;4.00;;
58896;SDS011;44677;52.378;10.400;2023-05-20T10:25:51;6.40;;;4.20;;
58896;SDS011;44677;52.378;10.400;2023-05-20T10:28:26;5.90;;;3.70;;
58896;SDS011;44677;52.378;10.400;2023-05-20T10:30:56;4.30;;;3.80;;
58896;SDS011;44677;52.378;10.400;2023-05-20T10:33:23;5.10;;;3.70;;
58896;SDS011;44677;52.378;10.400;2023-05-20T10:35:52;4.90;;;3.80;;
58896;SDS011;44677;52.378;10.400;2023-05-20T10:38:19;5.80;;;3.70;;
58896;SDS011;44677;52.378;10.400;2023-05-20T10:40:46;4.20;;;3.70;;
58896;SDS011;44677;52.378;10.400;2023-05-20T10:43:25;7.40;;;4.20;;
58896;SDS011;44677;52.378;10.400;2023-05-20T10:45:53;8.10;;;4.40;;
58896;SDS011;44677;52.378;10.400;2023-05-20T10:48:31;5.50;;;4.00;;
58896;SDS011;44677;52.378;10.400;2023-05-20T10:50:58;4.30;;;3.90;;
58896;SDS011;44677;52.378;10.400;2023-05-20T10:53:25;7.10;;;4.40;;
58896;SDS011;44677;52.378;10.400;2023-05-20T10:55:51;5.80;;;3.60;;
58896;SDS011;44677;52.378;10.400;2023-05-20T10:58:19;4.20;;;3.80;;
58896;SDS011;44677;52.378;10.400;2023-05-20T11:00:50;5.10;;;4.00;;
58896;SDS011;44677;52.378;10.400;2023-05-20T11:03:17;5.40;;;4.20;;
58896;SDS011;44677;52.378;10.400;2023-05-20T11:05:46;4.30;;;3.80;;
58896;SDS011;44677;52.378;10.400;2023-05-20T11:08:12;7.20;;;4.00;;
58896;SDS011;44677;52.378;10.400;2023-05-20T11:10:37;11.90;;;4.60;;
58896;SDS011;44677;52.378;10.400;2023-05-20T11:13:03;6.00;;;3.90;;
58896;SDS011;44677;52.378;10.400;2023-05-20T11:15:30;6.50;;;4.10;;
58896;SDS011;44677;52.378;10.400;2023-05-20T11:20:22;6.20;;;4.30;;
58896;SDS011;44677;52.378;10.400;2023-05-20T11:22:52;6.60;;;3.90;;
58896;SDS011;44677;52.378;10.400;2023-05-20T11:25:18;4.20;;;3.80;;
58896;SDS011;44677;52.378;10.400;2023-05-20T11:27:45;6.30;;;4.10;;
58896;SDS011;44677;52.378;10.400;2023-05-20T11:30:11;4.80;;;4.20;;
58896;SDS011;44677;52.378;10.400;2023-05-20T11:32:40;6.10;;;4.00;;
58896;SDS011;44677;52.378;10.400;2023-05-20T11:35:06;5.70;;;4.20;;
58896;SDS011;44677;52.378;10.400;2023-05-20T11:37:34;5.40;;;4.20;;
58896;SDS011;44677;52.378;10.400;2023-05-20T11:40:04;7.70;;;4.00;;
58896;SDS011;44677;52.378;10.400;2023-05-20T11:42:34;4.60;;;3.80;;
58896;SDS011;44677;52.378;10.400;2023-05-20T11:47:25;7.00;;;3.70;;
58896;SDS011;44677;52.378;10.400;2023-05-20T11:49:55;7.90;;;4.50;;
58896;SDS011;44677;52.378;10.400;2023-05-20T11:52:21;5.40;;;3.90;;
58896;SDS011;44677;52.378;10.400;2023-05-20T11:54:55;6.90;;;3.90;;
58896;SDS011;44677;52.378;10.400;2023-05-20T11:57:20;8.30;;;4.00;;
58896;SDS011;44677;52.378;10.400;2023-05-20T11:59:47;6.20;;;4.10;;
58896;SDS011;44677;52.378;10.400;2023-05-20T12:02:13;7.40;;;4.20;;
58896;SDS011;44677;52.378;10.400;2023-05-20T12:04:38;5.40;;;4.30;;
58896;SDS011;44677;52.378;10.400;2023-05-20T12:07:04;6.90;;;4.70;;
58896;SDS011;44677;52.378;10.400;2023-05-20T12:09:33;5.20;;;4.00;;
58896;SDS011;44677;52.378;10.400;2023-05-20T12:11:59;5.80;;;4.60;;
58896;SDS011;44677;52.378;10.400;2023-05-20T12:14:24;5.30;;;4.00;;
58896;SDS011;44677;52.378;10.400;2023-05-20T12:16:50;6.80;;;4.20;;
58896;SDS011;44677;52.378;10.400;2023-05-20T12:19:16;6.20;;;4.00;;
58896;SDS011;44677;52.378;10.400;2023-05-20T12:21:42;4.20;;;3.80;;
58896;SDS011;44677;52.378;10.400;2023-05-20T12:24:07;5.10;;;3.80;;
58896;SDS011;44677;52.378;10.400;2023-05-20T12:26:33;6.50;;;3.70;;
58896;SDS011;44677;52.378;10.400;2023-05-20T12:28:59;4.90;;;4.00;;
58896;SDS011;44677;52.378;10.400;2023-05-20T12:31:25;5.40;;;4.20;;
58896;SDS011;44677;52.378;10.400;2023-05-20T12:33:50;5.90;;;4.30;;
58896;SDS011;44677;52.378;10.400;2023-05-20T12:36:16;6.50;;;4.70;;
58896;SDS011;44677;52.378;10.400;2023-05-20T12:38:41;6.60;;;4.10;;
58896;SDS011;44677;52.378;10.400;2023-05-20T12:41:07;5.50;;;4.40;;
58896;SDS011;44677;52.378;10.400;2023-05-20T12:43:32;5.10;;;3.90;;
58896;SDS011;44677;52.378;10.400;2023-05-20T12:45:59;5.40;;;3.90;;
58896;SDS011;44677;52.378;10.400;2023-05-20T12:48:25;5.00;;;4.10;;
58896;SDS011;44677;52.378;10.400;2023-05-20T12:50:50;5.20;;;4.10;;
58896;SDS011;44677;52.378;10.400;2023-05-20T12:53:15;4.40;;;4.00;;
58896;SDS011;44677;52.378;10.400;2023-05-20T12:55:41;5.60;;;4.20;;
58896;SDS011;44677;52.378;10.400;2023-05-20T12:58:06;5.50;;;4.10;;
58896;SDS011;44677;52.378;10.400;2023-05-20T13:00:35;5.70;;;4.10;;
58896;SDS011;44677;52.378;10.400;2023-05-20T13:03:00;5.20;;;4.10;;
58896;SDS011;44677;52.378;10.400;2023-05-20T13:05:25;5.40;;;3.60;;
58896;SDS011;44677;52.378;10.400;2023-05-20T13:07:51;4.10;;;3.70;;
58896;SDS011;44677;52.378;10.400;2023-05-20T13:10:16;5.30;;;4.10;;
58896;SDS011;44677;52.378;10.400;2023-05-20T13:12:42;6.30;;;3.80;;
58896;SDS011;44677;52.378;10.400;2023-05-20T13:15:10;4.60;;;4.10;;
58896;SDS011;44677;52.378;10.400;2023-05-20T13:17:37;5.60;;;4.30;;
58896;SDS011;44677;52.378;10.400;2023-05-20T13:20:03;5.00;;;4.30;;
58896;SDS011;44677;52.378;10.400;2023-05-20T13:22:29;5.70;;;4.20;;
58896;SDS011;44677;52.378;10.400;2023-05-20T13:24:54;5.30;;;4.00;;
58896;SDS011;44677;52.378;10.400;2023-05-20T13:27:20;4.80;;;3.80;;
58896;SDS011;44677;52.378;10.400;2023-05-20T13:29:45;5.50;;;3.70;;
58896;SDS011;44677;52.378;10.400;2023-05-20T13:32:11;9.10;;;4.10;;
58896;SDS011;44677;52.378;10.400;2023-05-20T13:34:36;6.50;;;4.20;;
58896;SDS011;44677;52.378;10.400;2023-05-20T13:37:03;5.30;;;4.10;;
58896;SDS011;44677;52.378;10.400;2023-05-20T13:39:29;6.20;;;4.20;;
58896;SDS011;44677;52.378;10.400;2023-05-20T13:41:54;4.80;;;4.20;;
58896;SDS011;44677;52.378;10.400;2023-05-20T13:44:20;6.70;;;4.60;;
58896;SDS011;44677;52.378;10.400;2023-05-20T13:46:45;5.50;;;4.70;;
58896;SDS011;44677;52.378;10.400;2023-05-20T13:49:11;5.90;;;4.50;;
58896;SDS011;44677;52.378;10.400;2023-05-20T13:51:36;4.70;;;4.30;;
58896;SDS011;44677;52.378;10.400;2023-05-20T13:54:02;5.70;;;4.40;;
58896;SDS011;44677;52.378;10.400;2023-05-20T13:56:28;6.90;;;4.50;;
58896;SDS011;44677;52.378;10.400;2023-05-20T13:58:53;7.30;;;4.60;;
58896;SDS011;44677;52.378;10.400;2023-05-20T14:01:19;4.00;;;3.60;;
58896;SDS011;44677;52.378;10.400;2023-05-20T14:03:44;4.60;;;4.20;;
58896;SDS011;44677;52.378;10.400;2023-05-20T14:06:10;5.30;;;4.00;;
58896;SDS011;44677;52.378;10.400;2023-05-20T14:08:36;5.60;;;4.30;;
58896;SDS011;44677;52.378;10.400;2023-05-20T14:11:01;6.30;;;4.20;;
58896;SDS011;44677;52.378;10.400;2023-05-20T14:13:27;4.90;;;4.40;;
58896;SDS011;44677;52.378;10.400;2023-05-20T14:15:52;5.30;;;4.30;;
58896;SDS011;44677;52.378;10.400;2023-05-20T14:18:21;5.00;;;4.50;;
58896;SDS011;44677;52.378;10.400;2023-05-20T14:20:46;7.70;;;4.40;;
58896;SDS011;44677;52.378;10.400;2023-05-20T14:23:12;4.90;;;4.10;;
58896;SDS011;44677;52.378;10.400;2023-05-20T14:25:38;5.60;;;4.50;;
58896;SDS011;44677;52.378;10.400;2023-05-20T14:28:03;9.60;;;5.10;;
58896;SDS011;44677;52.378;10.400;2023-05-20T14:30:29;6.10;;;4.50;;
58896;SDS011;44677;52.378;10.400;2023-05-20T14:32:55;6.20;;;4.30;;
58896;SDS011;44677;52.378;10.400;2023-05-20T14:35:20;7.40;;;4.50;;
58896;SDS011;44677;52.378;10.400;2023-05-20T14:37:45;4.50;;;4.10;;
58896;SDS011;44677;52.378;10.400;2023-05-20T14:40:11;7.40;;;4.20;;
58896;SDS011;44677;52.378;10.400;2023-05-20T14:42:37;4.90;;;4.20;;
58896;SDS011;44677;52.378;10.400;2023-05-20T14:45:02;4.70;;;4.10;;
58896;SDS011;44677;52.378;10.400;2023-05-20T14:47:28;6.80;;;4.40;;
58896;SDS011;44677;52.378;10.400;2023-05-20T14:49:54;5.80;;;4.40;;
58896;SDS011;44677;52.378;10.400;2023-05-20T14:52:20;6.00;;;4.50;;
58896;SDS011;44677;52.378;10.400;2023-05-20T14:54:45;5.50;;;4.10;;
58896;SDS011;44677;52.378;10.400;2023-05-20T14:57:11;5.30;;;4.00;;